createdAt,value
2023-04-26T00:00:21.062Z,8.42
2023-04-26T00:05:25.349Z,8.31
2023-04-26T00:10:27.561Z,8.19
2023-04-26T00:15:29.902Z,8.09
2023-04-26T00:20:32.122Z,7.98
2023-04-26T00:25:34.260Z,7.85
2023-04-26T00:30:37.996Z,7.76
2023-04-26T00:35:39.971Z,7.64
2023-04-26T00:40:42.029Z,7.55
2023-04-26T00:45:44.192Z,7.45
2023-04-26T00:50:47.999Z,7.33
2023-04-26T00:55:51.816Z,7.24
2023-04-26T01:00:53.924Z,7.15
2023-04-26T01:05:56.247Z,7.02
2023-04-26T01:10:59.377Z,6.95
2023-04-26T01:16:02.878Z,6.84
2023-04-26T01:21:05.395Z,6.74
2023-04-26T01:26:07.394Z,6.65
2023-04-26T01:31:09.700Z,6.58
2023-04-26T01:36:11.946Z,6.50
2023-04-26T01:41:14.209Z,6.42
2023-04-26T01:46:16.335Z,6.34
2023-04-26T01:51:18.456Z,6.24
2023-04-26T01:56:21.680Z,6.19
2023-04-26T02:06:42.008Z,6.01
2023-04-26T02:11:44.050Z,5.93
2023-04-26T02:16:46.105Z,5.88
2023-04-26T02:21:58.635Z,5.78
2023-04-26T02:27:04.082Z,5.70
2023-04-26T02:32:06.258Z,5.63
2023-04-26T02:37:09.174Z,5.58
2023-04-26T02:42:11.269Z,5.51
2023-04-26T02:47:13.279Z,5.42
2023-04-26T02:52:15.274Z,5.36
2023-04-26T02:57:17.213Z,5.27
2023-04-26T03:02:19.294Z,5.23
2023-04-26T03:07:21.754Z,5.16
2023-04-26T03:12:23.666Z,5.09
2023-04-26T03:17:26.143Z,5.03
2023-04-26T03:22:28.074Z,4.97
2023-04-26T03:27:30.086Z,4.92
2023-04-26T03:32:32.136Z,4.86
2023-04-26T03:37:34.153Z,4.78
2023-04-26T03:42:39.616Z,4.73
2023-04-26T03:47:41.552Z,4.67
2023-04-26T03:52:43.501Z,4.60
2023-04-26T03:57:45.490Z,4.55
2023-04-26T04:02:47.612Z,4.51
2023-04-26T04:07:49.745Z,4.48
2023-04-26T04:12:52.742Z,4.41
2023-04-26T04:17:54.749Z,4.40
2023-04-26T04:22:58.936Z,4.36
2023-04-26T04:28:02.985Z,4.35
2023-04-26T04:33:05.738Z,4.39
2023-04-26T04:38:08.548Z,4.49
2023-04-26T04:43:10.759Z,4.67
2023-04-26T04:48:12.755Z,4.90
2023-04-26T04:53:14.817Z,5.15
2023-04-26T04:58:16.753Z,5.46
2023-04-26T05:03:19.440Z,5.89
2023-04-26T05:08:22.415Z,6.35
2023-04-26T05:13:26.209Z,6.67
2023-04-26T05:18:29.957Z,7.06
2023-04-26T05:23:32.836Z,7.38
2023-04-26T05:28:36.255Z,7.70
2023-04-26T05:33:38.375Z,8.06
2023-04-26T05:38:40.463Z,8.45
2023-04-26T05:43:42.525Z,8.85
2023-04-26T05:48:44.566Z,9.28
2023-04-26T05:53:46.529Z,9.70
2023-04-26T05:58:48.691Z,10.06
2023-04-26T06:03:51.702Z,10.53
2023-04-26T06:08:54.866Z,10.79
2023-04-26T06:13:56.903Z,11.16
2023-04-26T06:18:58.841Z,11.44
2023-04-26T06:24:01.015Z,11.82
2023-04-26T06:29:03.663Z,12.14
2023-04-26T06:34:05.947Z,12.47
2023-04-26T06:39:08.529Z,12.79
2023-04-26T06:44:10.850Z,13.02
2023-04-26T06:49:12.999Z,13.32
2023-04-26T06:54:15.155Z,13.51
2023-04-26T06:59:17.366Z,13.61
2023-04-26T07:04:20.924Z,13.83
2023-04-26T07:09:23.371Z,13.95
2023-04-26T07:14:25.586Z,14.32
2023-04-26T07:19:27.720Z,14.52
2023-04-26T07:24:29.823Z,15.01
2023-04-26T07:29:31.954Z,15.22
2023-04-26T07:34:34.267Z,15.21
2023-04-26T07:39:36.419Z,15.23
2023-04-26T07:44:38.617Z,15.21
2023-04-26T07:49:40.700Z,15.15
2023-04-26T07:54:45.693Z,15.39
2023-04-26T07:59:47.765Z,15.60
2023-04-26T08:04:52.853Z,15.54
2023-04-26T08:09:55.724Z,15.97
2023-04-26T08:14:58.053Z,15.85
2023-04-26T08:20:00.196Z,15.80
2023-04-26T08:25:02.671Z,15.52
2023-04-26T08:30:05.973Z,15.84
2023-04-26T08:35:09.659Z,15.67
2023-04-26T08:40:12.157Z,15.30
2023-04-26T08:45:16.684Z,15.06
2023-04-26T08:50:24.059Z,14.95
2023-04-26T08:55:27.349Z,15.19
2023-04-26T09:00:31.307Z,15.27
2023-04-26T09:05:34.963Z,15.09
2023-04-26T09:10:37.196Z,14.83
2023-04-26T09:15:39.437Z,14.85
2023-04-26T09:20:41.529Z,14.85
2023-04-26T09:25:43.657Z,14.72
2023-04-26T09:30:46.027Z,14.51
2023-04-26T09:35:48.194Z,14.74
2023-04-26T09:40:51.331Z,14.62
2023-04-26T09:45:54.769Z,14.58
2023-04-26T09:51:03.721Z,14.63
2023-04-26T09:56:13.854Z,14.76
2023-04-26T10:01:20.427Z,14.69
2023-04-26T10:06:22.638Z,14.86
2023-04-26T10:11:27.090Z,14.90
2023-04-26T10:16:29.936Z,14.68
2023-04-26T10:21:38.235Z,14.62
2023-04-26T10:26:53.319Z,14.54
2023-04-26T10:32:04.878Z,14.31
2023-04-26T10:37:14.115Z,14.46
2023-04-26T10:42:27.912Z,14.58
2023-04-26T10:47:33.027Z,14.64
2023-04-26T10:52:39.497Z,14.71
2023-04-26T10:57:53.204Z,14.66
2023-04-26T11:03:07.355Z,14.56
2023-04-26T11:08:20.756Z,14.80
2023-04-26T11:13:22.989Z,14.97
2023-04-26T11:18:25.322Z,15.17
2023-04-26T11:23:30.433Z,15.22
2023-04-26T11:28:35.546Z,15.34
2023-04-26T11:33:38.303Z,15.38
2023-04-26T11:38:40.257Z,14.87
2023-04-26T11:43:42.365Z,14.91
2023-04-26T11:48:44.550Z,15.02
2023-04-26T11:53:46.573Z,14.92
2023-04-26T11:58:50.756Z,14.79
2023-04-26T12:03:54.849Z,14.59
2023-04-26T12:08:58.124Z,14.61
2023-04-26T12:14:00.292Z,14.59
2023-04-26T12:19:06.250Z,14.51
2023-04-26T12:24:08.596Z,14.45
2023-04-26T12:29:10.787Z,14.40
2023-04-26T12:34:14.359Z,14.46
2023-04-26T12:39:17.234Z,14.41
2023-04-26T12:44:21.386Z,14.40
2023-04-26T12:49:24.734Z,14.38
2023-04-26T12:54:27.367Z,14.31
2023-04-26T12:59:29.586Z,14.26
2023-04-26T13:04:32.056Z,14.23
2023-04-26T13:09:34.579Z,14.19
2023-04-26T13:14:36.656Z,14.20
2023-04-26T13:19:45.228Z,14.22
2023-04-26T13:24:47.780Z,14.29
2023-04-26T13:29:51.401Z,14.30
2023-04-26T13:34:55.100Z,14.23
2023-04-26T13:39:59.068Z,14.20
2023-04-26T13:45:06.472Z,14.11
2023-04-26T13:50:09.593Z,14.06
2023-04-26T13:55:11.681Z,14.02
2023-04-26T14:00:18.962Z,14.00
2023-04-26T14:05:21.238Z,13.95
2023-04-26T14:10:25.125Z,13.92
2023-04-26T14:15:27.250Z,13.89
2023-04-26T14:20:29.334Z,13.85
2023-04-26T14:25:31.555Z,13.87
2023-04-26T14:30:33.782Z,13.81
2023-04-26T14:35:36.368Z,13.75
2023-04-26T14:40:38.455Z,13.76
2023-04-26T14:45:44.887Z,13.80
2023-04-26T14:50:48.115Z,13.63
2023-04-26T14:55:55.859Z,13.64
2023-04-26T15:00:57.944Z,13.58
2023-04-26T15:06:00.353Z,13.54
2023-04-26T15:11:03.564Z,13.55
2023-04-26T15:16:08.586Z,13.55
2023-04-26T15:21:17.081Z,13.50
2023-04-26T15:26:19.120Z,13.43
2023-04-26T15:31:21.378Z,13.35
2023-04-26T15:36:23.883Z,13.25
2023-04-26T15:41:25.935Z,13.18
2023-04-26T15:46:28.296Z,13.10
2023-04-26T15:51:30.426Z,13.01
2023-04-26T15:56:34.026Z,12.89
2023-04-26T16:01:36.191Z,12.79
2023-04-26T16:06:38.204Z,12.71
2023-04-26T16:11:40.254Z,12.60
2023-04-26T16:16:42.488Z,12.46
2023-04-26T16:21:44.496Z,12.35
2023-04-26T16:26:46.769Z,12.31
2023-04-26T16:31:48.996Z,12.23
2023-04-26T16:36:51.120Z,12.16
2023-04-26T16:41:54.384Z,12.09
2023-04-26T16:46:56.788Z,11.98
2023-04-26T16:52:02.082Z,11.89
2023-04-26T16:57:04.824Z,11.77
2023-04-26T17:02:07.025Z,11.68
2023-04-26T17:07:09.095Z,11.60
2023-04-26T17:12:11.301Z,11.50
2023-04-26T17:17:13.892Z,11.41
2023-04-26T17:22:15.924Z,11.31
2023-04-26T17:27:18.371Z,11.21
2023-04-26T17:32:20.826Z,11.12
2023-04-26T17:37:23.322Z,11.01
2023-04-26T17:42:25.527Z,10.91
2023-04-26T17:47:31.559Z,10.86
2023-04-26T17:52:34.675Z,10.76
2023-04-26T17:57:39.959Z,10.68
2023-04-26T18:02:50.191Z,10.57
2023-04-26T18:08:05.577Z,10.48
2023-04-26T18:13:18.967Z,10.37
2023-04-26T18:18:21.445Z,10.25
2023-04-26T18:23:27.592Z,10.12
2023-04-26T18:28:30.528Z,9.99
2023-04-26T18:33:32.897Z,9.85
2023-04-26T18:38:35.530Z,9.72
2023-04-26T18:43:38.952Z,9.57
2023-04-26T18:48:42.283Z,9.43
2023-04-26T18:53:45.826Z,9.28
2023-04-26T18:58:48.381Z,9.14
2023-04-26T19:03:52.458Z,9.03
2023-04-26T19:08:55.550Z,8.87
2023-04-26T19:13:58.456Z,8.73
2023-04-26T19:19:01.749Z,8.59
2023-04-26T19:24:05.818Z,8.46
2023-04-26T19:29:10.693Z,8.30
2023-04-26T19:34:13.994Z,8.16
2023-04-26T19:39:18.482Z,8.04
2023-04-26T19:44:21.997Z,7.65
2023-04-26T19:49:25.799Z,6.95
2023-04-26T19:54:31.319Z,7.39
2023-04-26T19:59:34.863Z,7.33
2023-04-26T20:04:42.455Z,7.24
2023-04-26T20:16:08.678Z,6.97
2023-04-26T20:21:12.937Z,6.87
2023-04-26T20:26:16.179Z,6.75
2023-04-26T20:31:20.292Z,6.64
2023-04-26T20:36:23.032Z,6.51
2023-04-26T20:41:25.819Z,6.38
2023-04-26T20:46:28.329Z,6.28
2023-04-26T20:51:30.823Z,6.17
2023-04-26T20:56:32.913Z,6.07
2023-04-26T21:01:35.620Z,5.96
2023-04-26T21:06:37.789Z,5.84
2023-04-26T21:11:39.998Z,5.72
2023-04-26T21:16:42.071Z,5.63
2023-04-26T21:21:44.029Z,5.52
2023-04-26T21:26:46.558Z,5.40
2023-04-26T21:31:48.516Z,5.32
2023-04-26T21:36:53.133Z,5.23
2023-04-26T21:41:55.281Z,5.14
2023-04-26T21:46:57.767Z,5.05
2023-04-26T21:52:01.846Z,4.97
2023-04-26T21:57:07.128Z,4.86
2023-04-26T22:02:09.466Z,4.77
2023-04-26T22:07:11.630Z,4.70
2023-04-26T22:12:13.719Z,4.59
2023-04-26T22:17:16.850Z,4.52
2023-04-26T22:22:18.935Z,4.42
2023-04-26T22:27:21.158Z,4.32
2023-04-26T22:32:23.299Z,4.22
2023-04-26T22:37:25.310Z,4.16
2023-04-26T22:42:27.333Z,4.08
2023-04-26T22:47:29.511Z,4.01
2023-04-26T22:52:32.269Z,3.91
2023-04-26T22:57:34.590Z,3.82
2023-04-26T23:02:36.821Z,3.76
2023-04-26T23:07:40.353Z,3.68
2023-04-26T23:12:42.459Z,3.62
2023-04-26T23:17:45.815Z,3.57
2023-04-26T23:22:47.872Z,3.53
2023-04-26T23:27:49.886Z,3.44
2023-04-26T23:32:52.002Z,3.41
2023-04-26T23:37:55.320Z,3.35
2023-04-26T23:42:57.402Z,3.32
2023-04-26T23:47:59.571Z,3.22
2023-04-26T23:53:01.648Z,3.16
2023-04-26T23:58:03.591Z,3.10
